sensor_id;sensor_type;location;lat;lon;timestamp;pressure;altitude;pressure_sealevel;temperature;humidity
40708;BME280;26392;42.696;23.350;2022-08-25T00:02:25;95194.47;;;20.36;99.65
40708;BME280;26392;42.696;23.350;2022-08-25T00:04:50;95187.47;;;20.39;99.65
40708;BME280;26392;42.696;23.350;2022-08-25T00:07:16;95181.78;;;20.35;99.84
40708;BME280;26392;42.696;23.350;2022-08-25T00:09:41;95174.41;;;20.30;99.93
40708;BME280;26392;42.696;23.350;2022-08-25T00:12:07;95174.94;;;20.32;99.69
40708;BME280;26392;42.696;23.350;2022-08-25T00:14:36;95185.69;;;20.34;99.96
40708;BME280;26392;42.696;23.350;2022-08-25T00:17:03;95182.72;;;20.30;100.00
40708;BME280;26392;42.696;23.350;2022-08-25T00:19:32;95178.03;;;20.31;100.00
40708;BME280;26392;42.696;23.350;2022-08-25T00:21:59;95170.38;;;20.28;100.00
40708;BME280;26392;42.696;23.350;2022-08-25T00:24:25;95171.66;;;20.30;100.00
40708;BME280;26392;42.696;23.350;2022-08-25T00:26:54;95171.84;;;20.25;100.00
40708;BME280;26392;42.696;23.350;2022-08-25T00:29:21;95171.47;;;20.18;100.00
40708;BME280;26392;42.696;23.350;2022-08-25T00:31:50;95172.59;;;20.17;100.00
40708;BME280;26392;42.696;23.350;2022-08-25T00:34:20;95172.91;;;20.16;100.00
40708;BME280;26392;42.696;23.350;2022-08-25T00:36:47;95167.06;;;20.17;100.00
40708;BME280;26392;42.696;23.350;2022-08-25T00:39:18;95173.06;;;20.10;100.00
40708;BME280;26392;42.696;23.350;2022-08-25T00:41:47;95171.75;;;20.08;100.00
40708;BME280;26392;42.696;23.350;2022-08-25T00:44:14;95175.16;;;20.05;100.00
40708;BME280;26392;42.696;23.350;2022-08-25T00:46:48;95171.75;;;20.08;100.00
40708;BME280;26392;42.696;23.350;2022-08-25T00:49:18;95177.28;;;20.08;100.00
40708;BME280;26392;42.696;23.350;2022-08-25T00:52:02;95179.56;;;20.06;100.00
40708;BME280;26392;42.696;23.350;2022-08-25T00:54:34;95182.50;;;20.09;100.00
40708;BME280;26392;42.696;23.350;2022-08-25T00:57:03;95178.28;;;20.12;100.00
40708;BME280;26392;42.696;23.350;2022-08-25T00:59:29;95173.41;;;20.18;100.00
40708;BME280;26392;42.696;23.350;2022-08-25T01:01:55;95164.31;;;20.17;100.00
40708;BME280;26392;42.696;23.350;2022-08-25T01:04:21;95166.75;;;20.19;100.00
40708;BME280;26392;42.696;23.350;2022-08-25T01:06:48;95161.53;;;20.17;100.00
40708;BME280;26392;42.696;23.350;2022-08-25T01:09:14;95162.53;;;20.21;100.00
40708;BME280;26392;42.696;23.350;2022-08-25T01:11:41;95159.59;;;20.18;100.00
40708;BME280;26392;42.696;23.350;2022-08-25T01:14:08;95150.78;;;20.16;100.00
40708;BME280;26392;42.696;23.350;2022-08-25T01:16:37;95148.16;;;20.10;100.00
40708;BME280;26392;42.696;23.350;2022-08-25T01:19:05;95154.66;;;20.06;100.00
40708;BME280;26392;42.696;23.350;2022-08-25T01:21:37;95149.63;;;20.08;100.00
40708;BME280;26392;42.696;23.350;2022-08-25T01:24:04;95155.34;;;20.11;100.00
40708;BME280;26392;42.696;23.350;2022-08-25T01:26:32;95154.16;;;20.04;100.00
40708;BME280;26392;42.696;23.350;2022-08-25T01:29:02;95157.75;;;20.04;100.00
40708;BME280;26392;42.696;23.350;2022-08-25T01:31:47;95168.97;;;20.08;100.00
40708;BME280;26392;42.696;23.350;2022-08-25T01:34:15;95163.13;;;20.09;100.00
40708;BME280;26392;42.696;23.350;2022-08-25T01:36:42;95155.34;;;20.11;100.00
40708;BME280;26392;42.696;23.350;2022-08-25T01:39:08;95149.16;;;20.15;100.00
40708;BME280;26392;42.696;23.350;2022-08-25T01:44:00;95147.72;;;20.17;100.00
40708;BME280;26392;42.696;23.350;2022-08-25T01:46:26;95146.91;;;20.17;100.00
40708;BME280;26392;42.696;23.350;2022-08-25T01:48:52;95151.78;;;20.20;100.00
40708;BME280;26392;42.696;23.350;2022-08-25T01:51:19;95161.06;;;20.24;100.00
40708;BME280;26392;42.696;23.350;2022-08-25T01:53:45;95166.28;;;20.25;100.00
40708;BME280;26392;42.696;23.350;2022-08-25T01:56:13;95158.97;;;20.29;100.00
40708;BME280;26392;42.696;23.350;2022-08-25T01:58:43;95161.91;;;20.33;100.00
40708;BME280;26392;42.696;23.350;2022-08-25T02:01:12;95165.53;;;20.42;99.58
40708;BME280;26392;42.696;23.350;2022-08-25T02:03:42;95154.63;;;20.46;98.47
40708;BME280;26392;42.696;23.350;2022-08-25T02:06:11;95152.50;;;20.43;97.41
40708;BME280;26392;42.696;23.350;2022-08-25T02:08:36;95147.47;;;20.45;97.23
40708;BME280;26392;42.696;23.350;2022-08-25T02:11:03;95142.41;;;20.47;96.31
40708;BME280;26392;42.696;23.350;2022-08-25T02:13:28;95143.72;;;20.41;95.85
40708;BME280;26392;42.696;23.350;2022-08-25T02:15:56;95142.41;;;20.38;96.02
40708;BME280;26392;42.696;23.350;2022-08-25T02:18:22;95146.75;;;20.30;95.83
40708;BME280;26392;42.696;23.350;2022-08-25T02:20:48;95141.41;;;20.25;95.67
40708;BME280;26392;42.696;23.350;2022-08-25T02:23:14;95137.47;;;20.18;95.65
40708;BME280;26392;42.696;23.350;2022-08-25T02:25:41;95140.22;;;20.18;95.92
40708;BME280;26392;42.696;23.350;2022-08-25T02:28:07;95141.50;;;20.03;96.39
40708;BME280;26392;42.696;23.350;2022-08-25T02:30:35;95141.97;;;20.05;96.62
40708;BME280;26392;42.696;23.350;2022-08-25T02:33:00;95145.38;;;20.02;96.41
40708;BME280;26392;42.696;23.350;2022-08-25T02:35:26;95133.63;;;19.96;96.89
40708;BME280;26392;42.696;23.350;2022-08-25T02:37:52;95145.03;;;19.95;97.12
40708;BME280;26392;42.696;23.350;2022-08-25T02:40:18;95139.00;;;19.93;96.90
40708;BME280;26392;42.696;23.350;2022-08-25T02:42:46;95134.28;;;19.93;97.04
40708;BME280;26392;42.696;23.350;2022-08-25T02:45:11;95138.50;;;19.90;97.29
40708;BME280;26392;42.696;23.350;2022-08-25T02:47:38;95137.50;;;19.86;97.74
40708;BME280;26392;42.696;23.350;2022-08-25T02:50:04;95137.66;;;19.81;97.84
40708;BME280;26392;42.696;23.350;2022-08-25T02:52:30;95138.78;;;19.80;98.07
40708;BME280;26392;42.696;23.350;2022-08-25T02:54:55;95139.88;;;19.71;98.88
40708;BME280;26392;42.696;23.350;2022-08-25T02:57:21;95145.56;;;19.74;98.82
40708;BME280;26392;42.696;23.350;2022-08-25T02:59:46;95146.25;;;19.80;98.73
40708;BME280;26392;42.696;23.350;2022-08-25T03:02:14;95149.34;;;19.78;99.06
40708;BME280;26392;42.696;23.350;2022-08-25T03:04:40;95153.09;;;19.82;98.88
40708;BME280;26392;42.696;23.350;2022-08-25T03:07:06;95158.31;;;19.84;98.78
40708;BME280;26392;42.696;23.350;2022-08-25T03:09:31;95156.34;;;19.84;98.75
40708;BME280;26392;42.696;23.350;2022-08-25T03:11:56;95159.63;;;19.86;98.25
40708;BME280;26392;42.696;23.350;2022-08-25T03:14:22;95158.47;;;19.87;97.77
40708;BME280;26392;42.696;23.350;2022-08-25T03:16:48;95152.66;;;19.89;97.78
40708;BME280;26392;42.696;23.350;2022-08-25T03:19:13;95141.91;;;19.87;97.59
40708;BME280;26392;42.696;23.350;2022-08-25T03:21:39;95151.66;;;19.94;96.93
40708;BME280;26392;42.696;23.350;2022-08-25T03:24:05;95155.28;;;19.94;96.86
40708;BME280;26392;42.696;23.350;2022-08-25T03:26:31;95154.28;;;19.90;97.53
40708;BME280;26392;42.696;23.350;2022-08-25T03:29:15;95156.09;;;19.95;97.24
40708;BME280;26392;42.696;23.350;2022-08-25T03:31:43;95153.63;;;19.93;97.36
40708;BME280;26392;42.696;23.350;2022-08-25T03:34:14;95151.38;;;19.95;96.81
40708;BME280;26392;42.696;23.350;2022-08-25T03:36:44;95159.84;;;19.99;96.52
40708;BME280;26392;42.696;23.350;2022-08-25T03:39:11;95157.88;;;19.99;96.40
40708;BME280;26392;42.696;23.350;2022-08-25T03:41:37;95158.38;;;20.01;95.68
40708;BME280;26392;42.696;23.350;2022-08-25T03:44:04;95163.78;;;20.06;95.74
40708;BME280;26392;42.696;23.350;2022-08-25T03:49:23;95155.00;;;20.13;95.49
40708;BME280;26392;42.696;23.350;2022-08-25T03:51:51;95151.94;;;20.15;95.24
40708;BME280;26392;42.696;23.350;2022-08-25T03:54:20;95145.25;;;20.16;95.06
40708;BME280;26392;42.696;23.350;2022-08-25T03:56:46;95147.53;;;20.13;94.79
40708;BME280;26392;42.696;23.350;2022-08-25T03:59:12;95150.28;;;20.13;95.23
40708;BME280;26392;42.696;23.350;2022-08-25T04:01:40;95141.38;;;20.17;94.78
40708;BME280;26392;42.696;23.350;2022-08-25T04:04:08;95140.53;;;20.16;94.67
40708;BME280;26392;42.696;23.350;2022-08-25T04:06:34;95138.91;;;20.15;94.69
40708;BME280;26392;42.696;23.350;2022-08-25T04:08:59;95139.41;;;20.17;94.27
40708;BME280;26392;42.696;23.350;2022-08-25T04:11:26;95144.44;;;20.15;94.49
40708;BME280;26392;42.696;23.350;2022-08-25T04:13:55;95140.06;;;20.14;95.18
40708;BME280;26392;42.696;23.350;2022-08-25T04:16:32;95147.06;;;20.20;94.53
40708;BME280;26392;42.696;23.350;2022-08-25T04:18:59;95153.59;;;20.24;93.69
40708;BME280;26392;42.696;23.350;2022-08-25T04:21:27;95141.88;;;20.27;93.63
40708;BME280;26392;42.696;23.350;2022-08-25T04:23:54;95150.03;;;20.32;93.39
40708;BME280;26392;42.696;23.350;2022-08-25T04:26:34;95135.56;;;20.35;92.80
40708;BME280;26392;42.696;23.350;2022-08-25T04:29:01;95132.13;;;20.39;93.13
40708;BME280;26392;42.696;23.350;2022-08-25T04:31:29;95126.59;;;20.39;92.93
40708;BME280;26392;42.696;23.350;2022-08-25T04:33:55;95128.91;;;20.45;92.69
40708;BME280;26392;42.696;23.350;2022-08-25T04:36:21;95142.09;;;20.48;92.09
40708;BME280;26392;42.696;23.350;2022-08-25T04:38:47;95140.66;;;20.51;91.56
40708;BME280;26392;42.696;23.350;2022-08-25T04:41:15;95146.53;;;20.58;91.39
40708;BME280;26392;42.696;23.350;2022-08-25T04:43:42;95148.84;;;20.65;91.27
40708;BME280;26392;42.696;23.350;2022-08-25T04:46:12;95150.31;;;20.71;90.96
40708;BME280;26392;42.696;23.350;2022-08-25T04:48:39;95158.31;;;20.81;90.19
40708;BME280;26392;42.696;23.350;2022-08-25T04:51:06;95155.88;;;20.88;89.75
40708;BME280;26392;42.696;23.350;2022-08-25T04:53:33;95170.22;;;20.99;88.84
40708;BME280;26392;42.696;23.350;2022-08-25T04:55:59;95166.94;;;21.06;88.37
40708;BME280;26392;42.696;23.350;2022-08-25T04:58:25;95166.94;;;21.14;87.71
40708;BME280;26392;42.696;23.350;2022-08-25T05:00:51;95164.84;;;21.29;87.99
40708;BME280;26392;42.696;23.350;2022-08-25T05:03:17;95156.22;;;21.39;87.33
40708;BME280;26392;42.696;23.350;2022-08-25T05:05:42;95154.91;;;21.54;86.56
40708;BME280;26392;42.696;23.350;2022-08-25T05:08:08;95162.38;;;21.62;85.40
40708;BME280;26392;42.696;23.350;2022-08-25T05:10:38;95152.56;;;21.73;85.28
40708;BME280;26392;42.696;23.350;2022-08-25T05:13:04;95143.75;;;21.80;84.10
40708;BME280;26392;42.696;23.350;2022-08-25T05:15:30;95143.56;;;21.85;83.82
40708;BME280;26392;42.696;23.350;2022-08-25T05:18:16;95141.09;;;21.92;83.46
40708;BME280;26392;42.696;23.350;2022-08-25T05:20:41;95149.28;;;21.80;83.26
40708;BME280;26392;42.696;23.350;2022-08-25T05:23:07;95137.84;;;21.81;83.38
40708;BME280;26392;42.696;23.350;2022-08-25T05:25:33;95138.16;;;21.88;83.36
40708;BME280;26392;42.696;23.350;2022-08-25T05:27:59;95133.75;;;21.96;82.69
40708;BME280;26392;42.696;23.350;2022-08-25T05:30:24;95130.81;;;21.93;82.66
40708;BME280;26392;42.696;23.350;2022-08-25T05:32:50;95131.44;;;21.98;82.34
40708;BME280;26392;42.696;23.350;2022-08-25T05:35:15;95133.72;;;22.05;82.42
40708;BME280;26392;42.696;23.350;2022-08-25T05:37:42;95131.06;;;22.08;81.82
40708;BME280;26392;42.696;23.350;2022-08-25T05:40:08;95131.38;;;22.16;81.79
40708;BME280;26392;42.696;23.350;2022-08-25T05:42:34;95142.91;;;22.35;81.39
40708;BME280;26392;42.696;23.350;2022-08-25T05:45:04;95136.09;;;22.53;80.99
40708;BME280;26392;42.696;23.350;2022-08-25T05:47:30;95132.50;;;22.53;79.52
40708;BME280;26392;42.696;23.350;2022-08-25T05:49:56;95127.91;;;22.57;79.45
40708;BME280;26392;42.696;23.350;2022-08-25T05:52:21;95131.91;;;22.68;79.07
40708;BME280;26392;42.696;23.350;2022-08-25T05:54:47;95143.03;;;22.68;79.16
40708;BME280;26392;42.696;23.350;2022-08-25T05:57:13;95139.78;;;22.66;79.17
40708;BME280;26392;42.696;23.350;2022-08-25T05:59:38;95140.72;;;22.70;78.91
40708;BME280;26392;42.696;23.350;2022-08-25T06:02:04;95145.47;;;22.70;79.22
40708;BME280;26392;42.696;23.350;2022-08-25T06:04:48;95137.63;;;22.72;79.24
40708;BME280;26392;42.696;23.350;2022-08-25T06:07:13;95133.81;;;22.76;79.04
40708;BME280;26392;42.696;23.350;2022-08-25T06:09:40;95141.69;;;22.74;78.99
40708;BME280;26392;42.696;23.350;2022-08-25T06:12:06;95138.56;;;22.76;79.22
40708;BME280;26392;42.696;23.350;2022-08-25T06:14:32;95138.84;;;22.83;79.57
40708;BME280;26392;42.696;23.350;2022-08-25T06:16:58;95145.63;;;22.94;78.86
40708;BME280;26392;42.696;23.350;2022-08-25T06:19:25;95137.59;;;23.01;78.95
40708;BME280;26392;42.696;23.350;2022-08-25T06:21:55;95130.03;;;23.11;78.18
40708;BME280;26392;42.696;23.350;2022-08-25T06:24:25;95133.84;;;23.18;78.10
40708;BME280;26392;42.696;23.350;2022-08-25T06:26:51;95136.44;;;23.23;78.42
40708;BME280;26392;42.696;23.350;2022-08-25T06:29:17;95128.16;;;23.36;77.69
40708;BME280;26392;42.696;23.350;2022-08-25T06:31:43;95122.38;;;23.41;76.83
40708;BME280;26392;42.696;23.350;2022-08-25T06:34:09;95126.59;;;23.47;76.76
40708;BME280;26392;42.696;23.350;2022-08-25T06:36:35;95128.22;;;23.60;76.89
40708;BME280;26392;42.696;23.350;2022-08-25T06:39:00;95139.78;;;23.71;76.59
40708;BME280;26392;42.696;23.350;2022-08-25T06:41:26;95137.69;;;23.80;76.23
40708;BME280;26392;42.696;23.350;2022-08-25T06:43:52;95134.16;;;23.92;75.45
40708;BME280;26392;42.696;23.350;2022-08-25T06:46:20;95129.88;;;24.07;74.83
40708;BME280;26392;42.696;23.350;2022-08-25T06:48:47;95132.66;;;24.19;73.97
40708;BME280;26392;42.696;23.350;2022-08-25T06:51:15;95137.69;;;24.26;74.11
40708;BME280;26392;42.696;23.350;2022-08-25T06:53:42;95134.63;;;24.31;73.65
40708;BME280;26392;42.696;23.350;2022-08-25T06:56:09;95134.31;;;24.20;74.03
40708;BME280;26392;42.696;23.350;2022-08-25T06:58:35;95137.09;;;24.32;72.91
40708;BME280;26392;42.696;23.350;2022-08-25T07:01:30;95133.66;;;24.48;72.34
40708;BME280;26392;42.696;23.350;2022-08-25T07:03:56;95142.69;;;24.57;72.34
40708;BME280;26392;42.696;23.350;2022-08-25T07:06:26;95135.25;;;24.61;71.60
40708;BME280;26392;42.696;23.350;2022-08-25T07:08:53;95139.19;;;24.72;71.40
40708;BME280;26392;42.696;23.350;2022-08-25T07:11:18;95132.72;;;24.68;71.42
40708;BME280;26392;42.696;23.350;2022-08-25T07:13:47;95136.41;;;24.85;71.04
40708;BME280;26392;42.696;23.350;2022-08-25T07:16:13;95133.13;;;24.95;70.23
40708;BME280;26392;42.696;23.350;2022-08-25T07:18:42;95133.09;;;25.07;69.60
40708;BME280;26392;42.696;23.350;2022-08-25T07:21:08;95133.03;;;25.32;70.48
40708;BME280;26392;42.696;23.350;2022-08-25T07:23:34;95139.06;;;25.46;68.42
40708;BME280;26392;42.696;23.350;2022-08-25T07:26:11;95133.41;;;25.58;67.45
40708;BME280;26392;42.696;23.350;2022-08-25T07:28:38;95127.31;;;25.68;67.00
40708;BME280;26392;42.696;23.350;2022-08-25T07:31:04;95125.13;;;25.90;66.31
40708;BME280;26392;42.696;23.350;2022-08-25T07:33:30;95125.06;;;26.18;65.57
40708;BME280;26392;42.696;23.350;2022-08-25T07:35:55;95127.41;;;26.32;66.20
40708;BME280;26392;42.696;23.350;2022-08-25T07:38:21;95118.41;;;26.54;65.61
40708;BME280;26392;42.696;23.350;2022-08-25T07:40:47;95121.31;;;26.58;63.86
40708;BME280;26392;42.696;23.350;2022-08-25T07:43:20;95128.22;;;26.64;63.37
40708;BME280;26392;42.696;23.350;2022-08-25T07:45:46;95125.91;;;26.50;62.99
40708;BME280;26392;42.696;23.350;2022-08-25T07:48:14;95124.72;;;26.51;63.37
40708;BME280;26392;42.696;23.350;2022-08-25T07:50:42;95132.91;;;26.60;64.23
40708;BME280;26392;42.696;23.350;2022-08-25T07:53:10;95130.31;;;26.51;62.54
40708;BME280;26392;42.696;23.350;2022-08-25T07:55:36;95133.09;;;26.67;62.02
40708;BME280;26392;42.696;23.350;2022-08-25T07:58:04;95130.16;;;26.95;61.42
40708;BME280;26392;42.696;23.350;2022-08-25T08:00:30;95121.91;;;27.02;60.60
40708;BME280;26392;42.696;23.350;2022-08-25T08:02:58;95128.19;;;26.80;61.04
40708;BME280;26392;42.696;23.350;2022-08-25T08:05:25;95122.50;;;26.92;61.24
40708;BME280;26392;42.696;23.350;2022-08-25T08:07:52;95124.03;;;26.90;61.49
40708;BME280;26392;42.696;23.350;2022-08-25T08:10:18;95114.88;;;27.09;62.13
40708;BME280;26392;42.696;23.350;2022-08-25T08:12:43;95111.91;;;27.17;61.06
40708;BME280;26392;42.696;23.350;2022-08-25T08:15:10;95123.31;;;27.28;60.98
40708;BME280;26392;42.696;23.350;2022-08-25T08:17:36;95110.78;;;27.22;58.69
40708;BME280;26392;42.696;23.350;2022-08-25T08:20:03;95122.19;;;27.33;58.63
40708;BME280;26392;42.696;23.350;2022-08-25T08:22:31;95108.59;;;27.51;59.01
40708;BME280;26392;42.696;23.350;2022-08-25T08:24:57;95108.16;;;27.49;58.80
40708;BME280;26392;42.696;23.350;2022-08-25T08:27:23;95101.13;;;27.58;57.56
40708;BME280;26392;42.696;23.350;2022-08-25T08:29:48;95099.22;;;27.82;58.03
40708;BME280;26392;42.696;23.350;2022-08-25T08:32:14;95100.28;;;27.97;56.79
40708;BME280;26392;42.696;23.350;2022-08-25T08:34:40;95099.28;;;27.85;56.86
40708;BME280;26392;42.696;23.350;2022-08-25T08:37:06;95091.53;;;27.79;56.92
40708;BME280;26392;42.696;23.350;2022-08-25T08:39:32;95095.19;;;27.79;56.52
40708;BME280;26392;42.696;23.350;2022-08-25T08:45:03;95090.94;;;27.89;55.40
40708;BME280;26392;42.696;23.350;2022-08-25T08:50:36;95088.59;;;27.91;56.57
40708;BME280;26392;42.696;23.350;2022-08-25T08:53:18;95085.53;;;28.23;55.10
40708;BME280;26392;42.696;23.350;2022-08-25T08:55:49;95081.94;;;28.22;55.49
40708;BME280;26392;42.696;23.350;2022-08-25T08:58:19;95092.78;;;28.47;54.42
40708;BME280;26392;42.696;23.350;2022-08-25T09:00:49;95084.53;;;28.58;53.15
40708;BME280;26392;42.696;23.350;2022-08-25T09:06:04;95085.78;;;28.37;53.33
40708;BME280;26392;42.696;23.350;2022-08-25T09:08:31;95084.94;;;27.87;53.38
40708;BME280;26392;42.696;23.350;2022-08-25T09:11:12;95090.38;;;28.26;51.35
40708;BME280;26392;42.696;23.350;2022-08-25T09:16:51;95084.88;;;28.29;49.27
40708;BME280;26392;42.696;23.350;2022-08-25T09:26:02;95081.00;;;27.92;51.67
40708;BME280;26392;42.696;23.350;2022-08-25T09:28:31;95077.28;;;28.07;50.36
40708;BME280;26392;42.696;23.350;2022-08-25T09:31:03;95075.16;;;28.23;50.54
40708;BME280;26392;42.696;23.350;2022-08-25T09:33:32;95084.38;;;28.47;48.03
40708;BME280;26392;42.696;23.350;2022-08-25T09:35:58;95085.84;;;28.41;47.54
40708;BME280;26392;42.696;23.350;2022-08-25T09:38:26;95069.78;;;28.38;48.20
40708;BME280;26392;42.696;23.350;2022-08-25T09:40:56;95074.00;;;28.74;48.19
40708;BME280;26392;42.696;23.350;2022-08-25T09:43:42;95058.50;;;28.84;47.01
40708;BME280;26392;42.696;23.350;2022-08-25T09:48:51;95054.09;;;28.56;47.09
40708;BME280;26392;42.696;23.350;2022-08-25T09:51:34;95054.84;;;27.84;47.08
40708;BME280;26392;42.696;23.350;2022-08-25T09:56:48;95053.19;;;27.60;48.33
40708;BME280;26392;42.696;23.350;2022-08-25T10:01:53;95058.19;;;28.13;47.11
40708;BME280;26392;42.696;23.350;2022-08-25T10:04:31;95063.47;;;27.75;47.93
40708;BME280;26392;42.696;23.350;2022-08-25T10:06:58;95056.06;;;27.83;47.65
40708;BME280;26392;42.696;23.350;2022-08-25T10:09:31;95062.09;;;27.65;48.01
40708;BME280;26392;42.696;23.350;2022-08-25T10:11:59;95061.31;;;27.65;49.15
40708;BME280;26392;42.696;23.350;2022-08-25T10:14:33;95062.41;;;27.60;49.33
40708;BME280;26392;42.696;23.350;2022-08-25T10:17:23;95056.78;;;27.37;49.20
40708;BME280;26392;42.696;23.350;2022-08-25T10:19:55;95046.16;;;27.27;48.79
40708;BME280;26392;42.696;23.350;2022-08-25T10:22:40;95056.81;;;27.41;49.45
40708;BME280;26392;42.696;23.350;2022-08-25T10:25:09;95050.19;;;27.49;49.52
40708;BME280;26392;42.696;23.350;2022-08-25T10:33:20;95053.00;;;27.30;48.25
40708;BME280;26392;42.696;23.350;2022-08-25T10:36:13;95048.44;;;27.21;47.78
40708;BME280;26392;42.696;23.350;2022-08-25T10:49:47;95030.97;;;28.40;45.46
40708;BME280;26392;42.696;23.350;2022-08-25T10:55:18;95027.31;;;27.86;47.10
40708;BME280;26392;42.696;23.350;2022-08-25T10:58:43;95029.34;;;27.89;47.12
40708;BME280;26392;42.696;23.350;2022-08-25T11:06:30;95030.44;;;27.61;48.17
40708;BME280;26392;42.696;23.350;2022-08-25T11:09:03;95025.22;;;27.79;48.56
40708;BME280;26392;42.696;23.350;2022-08-25T11:11:41;95027.81;;;27.92;48.05
40708;BME280;26392;42.696;23.350;2022-08-25T11:14:16;95031.34;;;27.88;46.88
40708;BME280;26392;42.696;23.350;2022-08-25T11:16:51;95015.75;;;27.87;47.01
40708;BME280;26392;42.696;23.350;2022-08-25T11:19:33;95001.94;;;27.98;46.73
40708;BME280;26392;42.696;23.350;2022-08-25T11:27:31;95001.56;;;28.00;46.85
40708;BME280;26392;42.696;23.350;2022-08-25T11:30:09;95001.28;;;28.08;46.78
40708;BME280;26392;42.696;23.350;2022-08-25T11:32:36;94984.44;;;28.05;47.14
40708;BME280;26392;42.696;23.350;2022-08-25T11:35:06;94980.63;;;28.17;46.10
40708;BME280;26392;42.696;23.350;2022-08-25T11:37:43;94985.72;;;28.11;46.97
40708;BME280;26392;42.696;23.350;2022-08-25T11:40:25;94990.78;;;27.79;47.57
40708;BME280;26392;42.696;23.350;2022-08-25T11:43:23;94975.41;;;27.46;47.23
40708;BME280;26392;42.696;23.350;2022-08-25T11:51:57;94991.69;;;27.40;47.24
40708;BME280;26392;42.696;23.350;2022-08-25T11:54:33;94968.06;;;27.38;47.49
40708;BME280;26392;42.696;23.350;2022-08-25T12:10:58;94954.28;;;28.48;45.36
40708;BME280;26392;42.696;23.350;2022-08-25T12:13:39;94960.47;;;28.61;44.25
40708;BME280;26392;42.696;23.350;2022-08-25T12:16:06;94968.19;;;28.41;45.05
40708;BME280;26392;42.696;23.350;2022-08-25T12:18:51;94955.19;;;28.02;44.87
40708;BME280;26392;42.696;23.350;2022-08-25T12:21:29;94966.22;;;27.68;45.64
40708;BME280;26392;42.696;23.350;2022-08-25T12:24:10;94962.50;;;27.84;46.08
40708;BME280;26392;42.696;23.350;2022-08-25T12:32:18;94967.00;;;27.69;45.85
40708;BME280;26392;42.696;23.350;2022-08-25T12:38:13;94960.91;;;28.36;43.32
40708;BME280;26392;42.696;23.350;2022-08-25T12:43:10;94972.03;;;28.29;43.53
40708;BME280;26392;42.696;23.350;2022-08-25T12:45:45;94976.59;;;28.41;44.29
40708;BME280;26392;42.696;23.350;2022-08-25T12:51:04;94956.81;;;28.56;43.16
40708;BME280;26392;42.696;23.350;2022-08-25T12:56:09;94943.88;;;29.09;42.21
40708;BME280;26392;42.696;23.350;2022-08-25T12:58:49;94964.09;;;28.91;42.27
40708;BME280;26392;42.696;23.350;2022-08-25T13:06:59;94958.78;;;28.52;43.71
40708;BME280;26392;42.696;23.350;2022-08-25T13:12:16;94961.13;;;28.50;42.86
40708;BME280;26392;42.696;23.350;2022-08-25T13:14:43;94967.25;;;28.33;43.74
40708;BME280;26392;42.696;23.350;2022-08-25T13:17:10;94966.66;;;28.20;43.30
40708;BME280;26392;42.696;23.350;2022-08-25T13:19:36;94952.22;;;27.92;43.05
40708;BME280;26392;42.696;23.350;2022-08-25T13:22:11;94953.84;;;27.93;43.06
40708;BME280;26392;42.696;23.350;2022-08-25T13:24:41;94953.66;;;28.05;43.13
40708;BME280;26392;42.696;23.350;2022-08-25T13:27:16;94950.91;;;28.35;42.58
40708;BME280;26392;42.696;23.350;2022-08-25T13:30:02;94954.50;;;28.36;42.20
40708;BME280;26392;42.696;23.350;2022-08-25T13:32:35;94959.22;;;28.31;42.67
40708;BME280;26392;42.696;23.350;2022-08-25T13:35:28;94956.34;;;28.24;42.58
40708;BME280;26392;42.696;23.350;2022-08-25T13:38:11;94953.81;;;28.16;43.57
40708;BME280;26392;42.696;23.350;2022-08-25T13:40:38;94972.13;;;28.09;42.73
40708;BME280;26392;42.696;23.350;2022-08-25T13:43:05;94948.63;;;27.91;43.22
40708;BME280;26392;42.696;23.350;2022-08-25T13:45:37;94961.06;;;28.20;43.27
40708;BME280;26392;42.696;23.350;2022-08-25T13:48:03;94947.63;;;28.29;42.86
40708;BME280;26392;42.696;23.350;2022-08-25T13:50:33;94960.88;;;28.32;42.15
40708;BME280;26392;42.696;23.350;2022-08-25T13:53:12;94954.50;;;28.36;42.36
40708;BME280;26392;42.696;23.350;2022-08-25T13:55:47;94973.09;;;28.47;41.69
40708;BME280;26392;42.696;23.350;2022-08-25T13:58:17;94956.25;;;28.44;41.95
40708;BME280;26392;42.696;23.350;2022-08-25T14:01:16;94952.03;;;28.30;42.35
40708;BME280;26392;42.696;23.350;2022-08-25T14:03:45;94951.78;;;28.13;42.03
40708;BME280;26392;42.696;23.350;2022-08-25T14:09:02;94958.81;;;28.29;42.55
40708;BME280;26392;42.696;23.350;2022-08-25T14:14:28;94953.41;;;28.17;42.25
40708;BME280;26392;42.696;23.350;2022-08-25T14:19:28;94956.75;;;28.00;43.38
40708;BME280;26392;42.696;23.350;2022-08-25T14:21:55;94952.13;;;28.11;43.30
40708;BME280;26392;42.696;23.350;2022-08-25T14:24:24;94950.84;;;28.05;42.63
40708;BME280;26392;42.696;23.350;2022-08-25T14:26:51;94955.47;;;28.20;43.02
40708;BME280;26392;42.696;23.350;2022-08-25T14:29:17;94946.38;;;28.00;42.81
40708;BME280;26392;42.696;23.350;2022-08-25T14:31:43;94955.91;;;27.96;43.50
40708;BME280;26392;42.696;23.350;2022-08-25T14:34:15;94957.94;;;27.76;43.57
40708;BME280;26392;42.696;23.350;2022-08-25T14:36:42;94949.25;;;27.81;43.86
40708;BME280;26392;42.696;23.350;2022-08-25T14:39:09;94951.38;;;27.87;43.54
40708;BME280;26392;42.696;23.350;2022-08-25T14:41:37;94952.44;;;27.79;43.55
40708;BME280;26392;42.696;23.350;2022-08-25T14:44:04;94943.69;;;27.61;43.58
40708;BME280;26392;42.696;23.350;2022-08-25T14:46:33;94949.97;;;27.55;44.79
40708;BME280;26392;42.696;23.350;2022-08-25T14:49:03;94944.38;;;27.55;44.38
40708;BME280;26392;42.696;23.350;2022-08-25T14:51:30;94951.91;;;27.74;44.48
40708;BME280;26392;42.696;23.350;2022-08-25T14:54:02;94946.25;;;27.93;44.35
40708;BME280;26392;42.696;23.350;2022-08-25T14:56:30;94948.66;;;27.95;43.95